sensor_id;sensor_type;location;lat;lon;timestamp;temperature;humidity
13606;DHT22;6874;52.084;5.090;2022-10-14T00:01:33;10.30;99.90
13606;DHT22;6874;52.084;5.090;2022-10-14T00:03:59;10.30;99.90
13606;DHT22;6874;52.084;5.090;2022-10-14T00:06:29;10.20;99.90
13606;DHT22;6874;52.084;5.090;2022-10-14T00:08:58;10.30;99.90
13606;DHT22;6874;52.084;5.090;2022-10-14T00:11:27;10.30;99.90
13606;DHT22;6874;52.084;5.090;2022-10-14T00:13:55;10.20;99.90
13606;DHT22;6874;52.084;5.090;2022-10-14T00:16:30;10.20;99.90
13606;DHT22;6874;52.084;5.090;2022-10-14T00:18:57;10.20;99.90
13606;DHT22;6874;52.084;5.090;2022-10-14T00:21:23;10.20;99.90
13606;DHT22;6874;52.084;5.090;2022-10-14T00:23:48;10.20;99.90
13606;DHT22;6874;52.084;5.090;2022-10-14T00:26:19;10.20;99.90
13606;DHT22;6874;52.084;5.090;2022-10-14T00:28:46;10.20;99.90
13606;DHT22;6874;52.084;5.090;2022-10-14T00:31:13;10.20;99.90
13606;DHT22;6874;52.084;5.090;2022-10-14T00:33:39;10.20;99.90
13606;DHT22;6874;52.084;5.090;2022-10-14T00:36:05;10.20;99.90
13606;DHT22;6874;52.084;5.090;2022-10-14T00:38:33;10.20;99.90
13606;DHT22;6874;52.084;5.090;2022-10-14T00:40:59;10.20;99.90
13606;DHT22;6874;52.084;5.090;2022-10-14T00:43:25;10.20;99.90
13606;DHT22;6874;52.084;5.090;2022-10-14T00:45:52;10.10;99.90
13606;DHT22;6874;52.084;5.090;2022-10-14T00:48:19;10.10;99.90
13606;DHT22;6874;52.084;5.090;2022-10-14T00:50:48;10.10;99.90
13606;DHT22;6874;52.084;5.090;2022-10-14T00:53:14;10.10;99.90
13606;DHT22;6874;52.084;5.090;2022-10-14T00:55:41;10.10;99.90
13606;DHT22;6874;52.084;5.090;2022-10-14T00:58:08;10.10;99.90
13606;DHT22;6874;52.084;5.090;2022-10-14T01:00:34;10.10;99.90
13606;DHT22;6874;52.084;5.090;2022-10-14T01:02:59;10.20;99.90
13606;DHT22;6874;52.084;5.090;2022-10-14T01:05:31;10.20;99.90
13606;DHT22;6874;52.084;5.090;2022-10-14T01:08:08;10.20;99.90
13606;DHT22;6874;52.084;5.090;2022-10-14T01:10:42;10.20;99.90
13606;DHT22;6874;52.084;5.090;2022-10-14T01:13:24;10.20;99.90
13606;DHT22;6874;52.084;5.090;2022-10-14T01:16:03;10.20;99.90
13606;DHT22;6874;52.084;5.090;2022-10-14T01:18:48;10.20;99.90
13606;DHT22;6874;52.084;5.090;2022-10-14T01:21:27;10.20;99.90
13606;DHT22;6874;52.084;5.090;2022-10-14T01:24:00;10.20;99.90
13606;DHT22;6874;52.084;5.090;2022-10-14T01:32:18;10.20;99.90
13606;DHT22;6874;52.084;5.090;2022-10-14T01:34:52;10.20;99.90
13606;DHT22;6874;52.084;5.090;2022-10-14T01:37:23;10.10;99.90
13606;DHT22;6874;52.084;5.090;2022-10-14T01:39:56;10.20;99.90
13606;DHT22;6874;52.084;5.090;2022-10-14T01:42:26;10.20;99.90
13606;DHT22;6874;52.084;5.090;2022-10-14T01:44:55;10.20;99.90
13606;DHT22;6874;52.084;5.090;2022-10-14T01:47:25;10.20;99.90
13606;DHT22;6874;52.084;5.090;2022-10-14T01:50:18;10.20;99.90
13606;DHT22;6874;52.084;5.090;2022-10-14T01:53:09;10.20;99.90
13606;DHT22;6874;52.084;5.090;2022-10-14T01:55:40;10.20;99.90
13606;DHT22;6874;52.084;5.090;2022-10-14T01:58:08;10.20;99.90
13606;DHT22;6874;52.084;5.090;2022-10-14T02:00:34;10.20;99.90
13606;DHT22;6874;52.084;5.090;2022-10-14T02:03:00;10.20;99.90
13606;DHT22;6874;52.084;5.090;2022-10-14T02:07:57;10.20;99.90
13606;DHT22;6874;52.084;5.090;2022-10-14T02:20:55;10.20;99.90
13606;DHT22;6874;52.084;5.090;2022-10-14T02:23:27;10.20;99.90
13606;DHT22;6874;52.084;5.090;2022-10-14T02:25:55;10.20;99.90
13606;DHT22;6874;52.084;5.090;2022-10-14T02:28:24;10.20;99.90
13606;DHT22;6874;52.084;5.090;2022-10-14T02:30:56;10.20;99.90
13606;DHT22;6874;52.084;5.090;2022-10-14T02:33:25;10.20;99.90
13606;DHT22;6874;52.084;5.090;2022-10-14T02:35:52;10.20;99.90
13606;DHT22;6874;52.084;5.090;2022-10-14T02:38:19;10.20;99.90
13606;DHT22;6874;52.084;5.090;2022-10-14T02:40:47;10.30;99.90
13606;DHT22;6874;52.084;5.090;2022-10-14T02:43:14;10.30;99.90
13606;DHT22;6874;52.084;5.090;2022-10-14T02:45:41;10.30;99.90
13606;DHT22;6874;52.084;5.090;2022-10-14T02:48:07;10.30;99.90
13606;DHT22;6874;52.084;5.090;2022-10-14T02:50:33;10.30;99.90
13606;DHT22;6874;52.084;5.090;2022-10-14T02:52:59;10.30;99.90
13606;DHT22;6874;52.084;5.090;2022-10-14T02:55:25;10.30;99.90
13606;DHT22;6874;52.084;5.090;2022-10-14T02:57:51;10.30;99.90
13606;DHT22;6874;52.084;5.090;2022-10-14T03:00:16;10.30;99.90
13606;DHT22;6874;52.084;5.090;2022-10-14T03:02:42;10.30;99.90
13606;DHT22;6874;52.084;5.090;2022-10-14T03:05:08;10.30;99.90
13606;DHT22;6874;52.084;5.090;2022-10-14T03:07:34;10.30;99.90
13606;DHT22;6874;52.084;5.090;2022-10-14T03:10:00;10.30;99.90
13606;DHT22;6874;52.084;5.090;2022-10-14T03:12:25;10.30;99.90
13606;DHT22;6874;52.084;5.090;2022-10-14T03:14:51;10.40;99.90
13606;DHT22;6874;52.084;5.090;2022-10-14T03:17:17;10.30;99.90
13606;DHT22;6874;52.084;5.090;2022-10-14T03:19:42;10.30;99.90
13606;DHT22;6874;52.084;5.090;2022-10-14T03:22:08;10.40;99.90
13606;DHT22;6874;52.084;5.090;2022-10-14T03:24:33;10.40;99.90
13606;DHT22;6874;52.084;5.090;2022-10-14T03:26:59;10.40;99.90
13606;DHT22;6874;52.084;5.090;2022-10-14T03:29:25;10.40;99.90
13606;DHT22;6874;52.084;5.090;2022-10-14T03:31:50;10.40;99.90
13606;DHT22;6874;52.084;5.090;2022-10-14T03:34:16;10.40;99.90
13606;DHT22;6874;52.084;5.090;2022-10-14T03:36:41;10.40;99.90
13606;DHT22;6874;52.084;5.090;2022-10-14T03:39:09;10.40;99.90
13606;DHT22;6874;52.084;5.090;2022-10-14T03:41:34;10.40;99.90
13606;DHT22;6874;52.084;5.090;2022-10-14T03:44:00;10.40;99.90
13606;DHT22;6874;52.084;5.090;2022-10-14T03:46:26;10.40;99.90
13606;DHT22;6874;52.084;5.090;2022-10-14T03:48:51;10.40;99.90
13606;DHT22;6874;52.084;5.090;2022-10-14T03:51:17;10.50;99.90
13606;DHT22;6874;52.084;5.090;2022-10-14T03:53:42;10.50;99.90
13606;DHT22;6874;52.084;5.090;2022-10-14T03:56:08;10.50;99.90
13606;DHT22;6874;52.084;5.090;2022-10-14T03:58:34;10.50;99.90
13606;DHT22;6874;52.084;5.090;2022-10-14T04:00:59;10.50;99.90
13606;DHT22;6874;52.084;5.090;2022-10-14T04:03:24;10.50;99.90
13606;DHT22;6874;52.084;5.090;2022-10-14T04:05:50;10.50;99.90
13606;DHT22;6874;52.084;5.090;2022-10-14T04:08:16;10.50;99.90
13606;DHT22;6874;52.084;5.090;2022-10-14T04:10:41;10.50;99.90
13606;DHT22;6874;52.084;5.090;2022-10-14T04:13:07;10.50;99.90
13606;DHT22;6874;52.084;5.090;2022-10-14T04:15:34;10.50;99.90
13606;DHT22;6874;52.084;5.090;2022-10-14T04:18:00;10.60;99.90
13606;DHT22;6874;52.084;5.090;2022-10-14T04:20:26;10.60;99.90
13606;DHT22;6874;52.084;5.090;2022-10-14T04:22:51;10.60;99.90
13606;DHT22;6874;52.084;5.090;2022-10-14T04:25:17;10.60;99.90
13606;DHT22;6874;52.084;5.090;2022-10-14T04:27:42;10.60;99.90
13606;DHT22;6874;52.084;5.090;2022-10-14T04:30:09;10.60;99.90
13606;DHT22;6874;52.084;5.090;2022-10-14T04:32:35;10.60;99.90
13606;DHT22;6874;52.084;5.090;2022-10-14T04:35:00;10.70;99.90
13606;DHT22;6874;52.084;5.090;2022-10-14T04:37:26;10.70;99.90
13606;DHT22;6874;52.084;5.090;2022-10-14T04:39:53;10.70;99.90
13606;DHT22;6874;52.084;5.090;2022-10-14T04:42:18;10.70;99.90
13606;DHT22;6874;52.084;5.090;2022-10-14T04:44:44;10.70;99.90
13606;DHT22;6874;52.084;5.090;2022-10-14T04:47:10;10.70;99.90
13606;DHT22;6874;52.084;5.090;2022-10-14T04:49:35;10.70;99.90
13606;DHT22;6874;52.084;5.090;2022-10-14T04:52:01;10.70;99.90
13606;DHT22;6874;52.084;5.090;2022-10-14T04:54:26;10.80;99.90
13606;DHT22;6874;52.084;5.090;2022-10-14T04:56:52;10.80;99.90
13606;DHT22;6874;52.084;5.090;2022-10-14T04:59:17;10.80;99.90
13606;DHT22;6874;52.084;5.090;2022-10-14T05:01:43;10.80;99.90
13606;DHT22;6874;52.084;5.090;2022-10-14T05:04:09;10.80;99.90
13606;DHT22;6874;52.084;5.090;2022-10-14T05:06:34;10.80;99.90
13606;DHT22;6874;52.084;5.090;2022-10-14T05:09:02;10.80;99.90
13606;DHT22;6874;52.084;5.090;2022-10-14T05:11:28;10.80;99.90
13606;DHT22;6874;52.084;5.090;2022-10-14T05:13:53;10.90;99.90
13606;DHT22;6874;52.084;5.090;2022-10-14T05:16:19;10.80;99.90
13606;DHT22;6874;52.084;5.090;2022-10-14T05:18:44;10.90;99.90
13606;DHT22;6874;52.084;5.090;2022-10-14T05:21:10;10.90;99.90
13606;DHT22;6874;52.084;5.090;2022-10-14T05:23:36;10.90;99.90
13606;DHT22;6874;52.084;5.090;2022-10-14T05:26:01;10.90;99.90
13606;DHT22;6874;52.084;5.090;2022-10-14T05:28:28;10.90;99.90
13606;DHT22;6874;52.084;5.090;2022-10-14T05:30:53;10.90;99.90
13606;DHT22;6874;52.084;5.090;2022-10-14T05:33:19;11.00;99.90
13606;DHT22;6874;52.084;5.090;2022-10-14T05:35:45;11.00;99.90
13606;DHT22;6874;52.084;5.090;2022-10-14T05:38:10;11.00;99.90
13606;DHT22;6874;52.084;5.090;2022-10-14T05:40:37;11.00;99.90
13606;DHT22;6874;52.084;5.090;2022-10-14T05:43:03;11.00;99.90
13606;DHT22;6874;52.084;5.090;2022-10-14T05:45:28;11.00;99.90
13606;DHT22;6874;52.084;5.090;2022-10-14T05:47:54;11.00;99.90
13606;DHT22;6874;52.084;5.090;2022-10-14T05:50:19;11.00;99.90
13606;DHT22;6874;52.084;5.090;2022-10-14T05:52:46;11.10;99.90
13606;DHT22;6874;52.084;5.090;2022-10-14T05:55:11;11.10;99.90
13606;DHT22;6874;52.084;5.090;2022-10-14T05:57:37;11.10;99.90
13606;DHT22;6874;52.084;5.090;2022-10-14T06:00:04;11.10;99.90
13606;DHT22;6874;52.084;5.090;2022-10-14T06:02:30;11.10;99.90
13606;DHT22;6874;52.084;5.090;2022-10-14T06:04:56;11.20;99.90
13606;DHT22;6874;52.084;5.090;2022-10-14T06:07:22;11.10;99.90
13606;DHT22;6874;52.084;5.090;2022-10-14T06:09:48;11.20;99.90
13606;DHT22;6874;52.084;5.090;2022-10-14T06:12:13;11.20;99.90
13606;DHT22;6874;52.084;5.090;2022-10-14T06:14:39;11.20;99.90
13606;DHT22;6874;52.084;5.090;2022-10-14T06:17:05;11.20;99.90
13606;DHT22;6874;52.084;5.090;2022-10-14T06:19:31;11.20;99.90
13606;DHT22;6874;52.084;5.090;2022-10-14T06:21:57;11.30;99.90
13606;DHT22;6874;52.084;5.090;2022-10-14T06:24:23;11.30;99.90
13606;DHT22;6874;52.084;5.090;2022-10-14T06:26:48;11.30;99.90
13606;DHT22;6874;52.084;5.090;2022-10-14T06:29:15;11.30;99.90
13606;DHT22;6874;52.084;5.090;2022-10-14T06:31:41;11.30;99.90
13606;DHT22;6874;52.084;5.090;2022-10-14T06:34:07;11.40;99.90
13606;DHT22;6874;52.084;5.090;2022-10-14T06:36:33;11.40;99.90
13606;DHT22;6874;52.084;5.090;2022-10-14T06:38:59;11.40;99.90
13606;DHT22;6874;52.084;5.090;2022-10-14T06:41:25;11.40;99.90
13606;DHT22;6874;52.084;5.090;2022-10-14T06:43:51;11.40;99.90
13606;DHT22;6874;52.084;5.090;2022-10-14T06:46:17;11.50;99.90
13606;DHT22;6874;52.084;5.090;2022-10-14T06:48:42;11.50;99.90
13606;DHT22;6874;52.084;5.090;2022-10-14T06:51:08;11.50;99.90
13606;DHT22;6874;52.084;5.090;2022-10-14T06:53:33;11.50;99.90
13606;DHT22;6874;52.084;5.090;2022-10-14T06:56:05;11.60;99.90
13606;DHT22;6874;52.084;5.090;2022-10-14T06:58:31;11.60;99.90
13606;DHT22;6874;52.084;5.090;2022-10-14T07:01:03;11.60;99.90
13606;DHT22;6874;52.084;5.090;2022-10-14T07:03:30;11.60;99.90
13606;DHT22;6874;52.084;5.090;2022-10-14T07:05:56;11.60;99.90
13606;DHT22;6874;52.084;5.090;2022-10-14T07:08:21;11.70;99.90
13606;DHT22;6874;52.084;5.090;2022-10-14T07:10:47;11.70;99.90
13606;DHT22;6874;52.084;5.090;2022-10-14T07:13:13;11.70;99.90
13606;DHT22;6874;52.084;5.090;2022-10-14T07:15:38;11.70;99.90
13606;DHT22;6874;52.084;5.090;2022-10-14T07:18:05;11.70;99.90
13606;DHT22;6874;52.084;5.090;2022-10-14T07:20:32;11.80;99.90
13606;DHT22;6874;52.084;5.090;2022-10-14T07:22:57;11.80;99.90
13606;DHT22;6874;52.084;5.090;2022-10-14T07:25:23;11.80;99.90
13606;DHT22;6874;52.084;5.090;2022-10-14T07:27:50;11.80;99.90
13606;DHT22;6874;52.084;5.090;2022-10-14T07:30:16;11.90;99.90
13606;DHT22;6874;52.084;5.090;2022-10-14T07:32:42;11.90;99.90
13606;DHT22;6874;52.084;5.090;2022-10-14T07:35:08;11.80;99.90
13606;DHT22;6874;52.084;5.090;2022-10-14T07:37:33;11.90;99.90
13606;DHT22;6874;52.084;5.090;2022-10-14T07:39:59;11.90;99.90
13606;DHT22;6874;52.084;5.090;2022-10-14T07:42:24;12.00;99.90
13606;DHT22;6874;52.084;5.090;2022-10-14T07:44:50;12.00;99.90
13606;DHT22;6874;52.084;5.090;2022-10-14T07:47:18;12.00;99.90
13606;DHT22;6874;52.084;5.090;2022-10-14T07:49:44;12.00;99.90
13606;DHT22;6874;52.084;5.090;2022-10-14T07:52:09;12.10;99.90
13606;DHT22;6874;52.084;5.090;2022-10-14T07:54:35;12.10;99.90
13606;DHT22;6874;52.084;5.090;2022-10-14T07:57:00;12.10;99.90
13606;DHT22;6874;52.084;5.090;2022-10-14T07:59:26;12.10;99.90
13606;DHT22;6874;52.084;5.090;2022-10-14T08:01:52;12.10;99.90
13606;DHT22;6874;52.084;5.090;2022-10-14T08:04:18;12.20;99.90
13606;DHT22;6874;52.084;5.090;2022-10-14T08:06:46;12.20;99.90
13606;DHT22;6874;52.084;5.090;2022-10-14T08:09:12;12.20;99.90
13606;DHT22;6874;52.084;5.090;2022-10-14T08:11:38;12.20;99.90
13606;DHT22;6874;52.084;5.090;2022-10-14T08:14:04;12.20;99.90
13606;DHT22;6874;52.084;5.090;2022-10-14T08:16:32;12.30;99.90
13606;DHT22;6874;52.084;5.090;2022-10-14T08:19:01;12.30;99.90
13606;DHT22;6874;52.084;5.090;2022-10-14T08:21:27;12.30;99.90
13606;DHT22;6874;52.084;5.090;2022-10-14T08:23:53;12.40;99.90
13606;DHT22;6874;52.084;5.090;2022-10-14T08:26:33;12.40;99.90
13606;DHT22;6874;52.084;5.090;2022-10-14T08:29:02;12.40;99.90
13606;DHT22;6874;52.084;5.090;2022-10-14T08:31:28;12.40;99.90
13606;DHT22;6874;52.084;5.090;2022-10-14T08:33:54;12.50;99.90
13606;DHT22;6874;52.084;5.090;2022-10-14T08:36:20;12.50;99.90
13606;DHT22;6874;52.084;5.090;2022-10-14T08:38:47;12.50;99.90
13606;DHT22;6874;52.084;5.090;2022-10-14T08:44:01;12.50;99.90
13606;DHT22;6874;52.084;5.090;2022-10-14T08:46:38;12.60;99.90
13606;DHT22;6874;52.084;5.090;2022-10-14T08:49:12;12.60;99.90
13606;DHT22;6874;52.084;5.090;2022-10-14T08:51:44;12.60;99.90
13606;DHT22;6874;52.084;5.090;2022-10-14T08:54:16;12.60;99.90
13606;DHT22;6874;52.084;5.090;2022-10-14T08:56:44;12.70;99.90
13606;DHT22;6874;52.084;5.090;2022-10-14T08:59:13;12.70;99.90
13606;DHT22;6874;52.084;5.090;2022-10-14T09:01:52;12.80;99.90
13606;DHT22;6874;52.084;5.090;2022-10-14T09:04:18;12.80;99.90
13606;DHT22;6874;52.084;5.090;2022-10-14T09:06:46;12.80;99.90
13606;DHT22;6874;52.084;5.090;2022-10-14T09:09:21;12.80;99.90
13606;DHT22;6874;52.084;5.090;2022-10-14T09:11:59;12.80;99.90
13606;DHT22;6874;52.084;5.090;2022-10-14T09:14:34;12.90;99.90
13606;DHT22;6874;52.084;5.090;2022-10-14T09:17:16;12.90;99.90
13606;DHT22;6874;52.084;5.090;2022-10-14T09:22:33;13.00;99.90
13606;DHT22;6874;52.084;5.090;2022-10-14T09:24:59;13.00;99.90
13606;DHT22;6874;52.084;5.090;2022-10-14T09:27:27;13.00;99.90
13606;DHT22;6874;52.084;5.090;2022-10-14T09:29:55;13.10;99.90
13606;DHT22;6874;52.084;5.090;2022-10-14T09:34:50;13.20;99.90
13606;DHT22;6874;52.084;5.090;2022-10-14T09:37:34;13.20;99.90
13606;DHT22;6874;52.084;5.090;2022-10-14T09:40:05;13.20;99.90
13606;DHT22;6874;52.084;5.090;2022-10-14T09:45:16;13.20;99.90
13606;DHT22;6874;52.084;5.090;2022-10-14T09:47:58;13.30;99.90
13606;DHT22;6874;52.084;5.090;2022-10-14T09:50:38;13.20;99.90
13606;DHT22;6874;52.084;5.090;2022-10-14T09:53:38;13.30;99.90
13606;DHT22;6874;52.084;5.090;2022-10-14T09:56:07;13.30;99.90
13606;DHT22;6874;52.084;5.090;2022-10-14T10:01:17;13.30;99.90
13606;DHT22;6874;52.084;5.090;2022-10-14T10:03:44;13.40;99.90
13606;DHT22;6874;52.084;5.090;2022-10-14T10:06:12;13.40;99.90
13606;DHT22;6874;52.084;5.090;2022-10-14T10:08:54;13.40;99.90
13606;DHT22;6874;52.084;5.090;2022-10-14T10:11:37;13.40;99.90
13606;DHT22;6874;52.084;5.090;2022-10-14T10:14:25;13.50;99.90
13606;DHT22;6874;52.084;5.090;2022-10-14T10:19:34;13.50;99.90
13606;DHT22;6874;52.084;5.090;2022-10-14T10:22:24;13.50;99.90
13606;DHT22;6874;52.084;5.090;2022-10-14T10:27:27;13.60;99.90
13606;DHT22;6874;52.084;5.090;2022-10-14T10:29:54;13.60;99.90
13606;DHT22;6874;52.084;5.090;2022-10-14T10:35:05;13.60;99.90
13606;DHT22;6874;52.084;5.090;2022-10-14T10:37:47;13.60;99.90
13606;DHT22;6874;52.084;5.090;2022-10-14T10:40:29;13.60;99.90
13606;DHT22;6874;52.084;5.090;2022-10-14T10:43:45;13.70;99.90
13606;DHT22;6874;52.084;5.090;2022-10-14T10:49:00;13.70;99.90
13606;DHT22;6874;52.084;5.090;2022-10-14T10:51:54;13.70;99.90
13606;DHT22;6874;52.084;5.090;2022-10-14T10:56:56;13.70;99.90
13606;DHT22;6874;52.084;5.090;2022-10-14T11:10:53;13.90;99.90
13606;DHT22;6874;52.084;5.090;2022-10-14T11:14:15;13.90;99.90
13606;DHT22;6874;52.084;5.090;2022-10-14T11:17:10;13.90;99.90
13606;DHT22;6874;52.084;5.090;2022-10-14T11:26:08;14.00;99.90
13606;DHT22;6874;52.084;5.090;2022-10-14T11:34:18;14.10;99.90
13606;DHT22;6874;52.084;5.090;2022-10-14T11:39:47;14.20;99.90
13606;DHT22;6874;52.084;5.090;2022-10-14T11:42:54;14.20;99.90
13606;DHT22;6874;52.084;5.090;2022-10-14T11:47:58;14.40;99.90
13606;DHT22;6874;52.084;5.090;2022-10-14T11:50:39;14.40;99.90
13606;DHT22;6874;52.084;5.090;2022-10-14T11:55:38;14.50;99.90
13606;DHT22;6874;52.084;5.090;2022-10-14T11:58:15;14.50;99.90
13606;DHT22;6874;52.084;5.090;2022-10-14T12:00:43;14.50;99.90
13606;DHT22;6874;52.084;5.090;2022-10-14T12:06:09;14.50;99.90
13606;DHT22;6874;52.084;5.090;2022-10-14T12:11:33;14.50;99.90
13606;DHT22;6874;52.084;5.090;2022-10-14T12:14:21;14.60;99.90
13606;DHT22;6874;52.084;5.090;2022-10-14T12:16:49;14.60;99.90
13606;DHT22;6874;52.084;5.090;2022-10-14T12:19:21;14.60;99.90
13606;DHT22;6874;52.084;5.090;2022-10-14T12:22:16;14.60;99.90
13606;DHT22;6874;52.084;5.090;2022-10-14T12:24:50;14.60;99.90
13606;DHT22;6874;52.084;5.090;2022-10-14T12:27:18;14.60;99.90
13606;DHT22;6874;52.084;5.090;2022-10-14T12:29:49;14.60;99.90
13606;DHT22;6874;52.084;5.090;2022-10-14T12:32:24;14.60;99.90
13606;DHT22;6874;52.084;5.090;2022-10-14T12:34:52;14.70;99.90
13606;DHT22;6874;52.084;5.090;2022-10-14T12:45:17;14.70;99.90
13606;DHT22;6874;52.084;5.090;2022-10-14T12:47:44;14.70;99.90
13606;DHT22;6874;52.084;5.090;2022-10-14T12:52:39;14.70;99.90
13606;DHT22;6874;52.084;5.090;2022-10-14T12:55:15;14.80;99.90
13606;DHT22;6874;52.084;5.090;2022-10-14T12:57:42;14.80;99.90
13606;DHT22;6874;52.084;5.090;2022-10-14T13:00:29;14.80;99.90
13606;DHT22;6874;52.084;5.090;2022-10-14T13:02:59;14.80;99.90
13606;DHT22;6874;52.084;5.090;2022-10-14T13:05:38;14.80;99.90
13606;DHT22;6874;52.084;5.090;2022-10-14T13:18:55;14.90;99.90
13606;DHT22;6874;52.084;5.090;2022-10-14T13:24:05;15.00;99.90
13606;DHT22;6874;52.084;5.090;2022-10-14T13:40:30;15.00;99.90
13606;DHT22;6874;52.084;5.090;2022-10-14T13:45:41;15.00;99.90
13606;DHT22;6874;52.084;5.090;2022-10-14T13:48:20;15.00;99.90
13606;DHT22;6874;52.084;5.090;2022-10-14T13:50:50;15.00;99.90
13606;DHT22;6874;52.084;5.090;2022-10-14T13:53:20;15.00;99.90
13606;DHT22;6874;52.084;5.090;2022-10-14T13:55:49;15.00;99.90
13606;DHT22;6874;52.084;5.090;2022-10-14T13:58:22;15.00;99.90
13606;DHT22;6874;52.084;5.090;2022-10-14T14:01:01;15.10;99.90
13606;DHT22;6874;52.084;5.090;2022-10-14T14:03:37;15.20;99.90
13606;DHT22;6874;52.084;5.090;2022-10-14T14:06:13;15.10;99.90
13606;DHT22;6874;52.084;5.090;2022-10-14T14:08:49;15.10;99.90
13606;DHT22;6874;52.084;5.090;2022-10-14T14:11:21;15.20;99.90
13606;DHT22;6874;52.084;5.090;2022-10-14T14:16:28;15.30;99.90
13606;DHT22;6874;52.084;5.090;2022-10-14T14:18:54;15.30;99.90
13606;DHT22;6874;52.084;5.090;2022-10-14T14:21:22;15.30;99.90
13606;DHT22;6874;52.084;5.090;2022-10-14T14:23:59;15.30;99.90
13606;DHT22;6874;52.084;5.090;2022-10-14T14:26:33;15.30;99.90
13606;DHT22;6874;52.084;5.090;2022-10-14T14:29:16;15.30;99.90
13606;DHT22;6874;52.084;5.090;2022-10-14T14:31:44;15.40;99.90
13606;DHT22;6874;52.084;5.090;2022-10-14T14:34:14;15.50;99.90
13606;DHT22;6874;52.084;5.090;2022-10-14T14:36:41;15.50;99.90
13606;DHT22;6874;52.084;5.090;2022-10-14T14:39:20;15.50;99.90
13606;DHT22;6874;52.084;5.090;2022-10-14T14:41:52;15.50;99.90
13606;DHT22;6874;52.084;5.090;2022-10-14T14:44:22;15.60;99.90
13606;DHT22;6874;52.084;5.090;2022-10-14T14:46:55;15.60;99.90
13606;DHT22;6874;52.084;5.090;2022-10-14T14:49:34;15.60;99.90
13606;DHT22;6874;52.084;5.090;2022-10-14T14:52:00;15.60;99.90
13606;DHT22;6874;52.084;5.090;2022-10-14T14:54:27;15.60;99.90
13606;DHT22;6874;52.084;5.090;2022-10-14T14:57:02;15.60;99.90
13606;DHT22;6874;52.084;5.090;2022-10-14T14:59:30;15.60;99.90
13606;DHT22;6874;52.084;5.090;2022-10-14T15:02:00;15.60;99.90
13606;DHT22;6874;52.084;5.090;2022-10-14T15:04:31;15.60;99.90
13606;DHT22;6874;52.084;5.090;2022-10-14T15:07:00;15.60;99.90
13606;DHT22;6874;52.084;5.090;2022-10-14T15:09:47;15.60;99.90
13606;DHT22;6874;52.084;5.090;2022-10-14T15:12:23;15.60;99.90
13606;DHT22;6874;52.084;5.090;2022-10-14T15:14:54;15.60;99.90
13606;DHT22;6874;52.084;5.090;2022-10-14T15:22:37;15.60;99.90
13606;DHT22;6874;52.084;5.090;2022-10-14T15:27:53;15.50;99.90
13606;DHT22;6874;52.084;5.090;2022-10-14T15:30:27;15.50;99.90
13606;DHT22;6874;52.084;5.090;2022-10-14T15:35:31;15.50;99.90
13606;DHT22;6874;52.084;5.090;2022-10-14T15:37:58;15.60;99.90
13606;DHT22;6874;52.084;5.090;2022-10-14T15:40:29;15.40;99.90
13606;DHT22;6874;52.084;5.090;2022-10-14T15:42:55;15.40;99.90
13606;DHT22;6874;52.084;5.090;2022-10-14T15:45:21;15.40;99.90
13606;DHT22;6874;52.084;5.090;2022-10-14T15:47:53;15.40;99.90
13606;DHT22;6874;52.084;5.090;2022-10-14T15:50:22;15.40;99.90
13606;DHT22;6874;52.084;5.090;2022-10-14T15:52:48;15.30;99.90
13606;DHT22;6874;52.084;5.090;2022-10-14T15:55:26;15.30;99.90
13606;DHT22;6874;52.084;5.090;2022-10-14T15:57:52;15.30;99.90
13606;DHT22;6874;52.084;5.090;2022-10-14T16:00:20;15.30;99.90
13606;DHT22;6874;52.084;5.090;2022-10-14T16:02:52;15.30;99.90
13606;DHT22;6874;52.084;5.090;2022-10-14T16:05:20;15.30;99.90
13606;DHT22;6874;52.084;5.090;2022-10-14T16:07:45;15.30;99.90
13606;DHT22;6874;52.084;5.090;2022-10-14T16:10:14;15.30;99.90
13606;DHT22;6874;52.084;5.090;2022-10-14T16:12:40;15.30;99.90
13606;DHT22;6874;52.084;5.090;2022-10-14T16:15:20;15.20;99.90
13606;DHT22;6874;52.084;5.090;2022-10-14T16:17:46;15.20;99.90
13606;DHT22;6874;52.084;5.090;2022-10-14T16:20:12;15.20;99.90
13606;DHT22;6874;52.084;5.090;2022-10-14T16:22:38;15.20;99.90
13606;DHT22;6874;52.084;5.090;2022-10-14T16:25:04;15.10;99.90
13606;DHT22;6874;52.084;5.090;2022-10-14T16:27:29;15.10;99.90
13606;DHT22;6874;52.084;5.090;2022-10-14T16:29:55;15.10;99.90
13606;DHT22;6874;52.084;5.090;2022-10-14T16:32:20;15.10;99.90
13606;DHT22;6874;52.084;5.090;2022-10-14T16:34:46;15.00;99.90
13606;DHT22;6874;52.084;5.090;2022-10-14T16:37:11;15.00;99.90
13606;DHT22;6874;52.084;5.090;2022-10-14T16:39:37;15.00;99.90
13606;DHT22;6874;52.084;5.090;2022-10-14T16:42:03;15.00;99.90
13606;DHT22;6874;52.084;5.090;2022-10-14T16:44:29;15.10;99.90
13606;DHT22;6874;52.084;5.090;2022-10-14T16:46:57;15.00;99.90
13606;DHT22;6874;52.084;5.090;2022-10-14T16:49:46;15.00;99.90
13606;DHT22;6874;52.084;5.090;2022-10-14T16:52:12;14.90;99.90
13606;DHT22;6874;52.084;5.090;2022-10-14T16:54:38;14.90;99.90
13606;DHT22;6874;52.084;5.090;2022-10-14T16:57:04;14.90;99.90
13606;DHT22;6874;52.084;5.090;2022-10-14T16:59:31;14.80;99.90
13606;DHT22;6874;52.084;5.090;2022-10-14T17:01:57;14.80;99.90
13606;DHT22;6874;52.084;5.090;2022-10-14T17:04:23;14.80;99.90
13606;DHT22;6874;52.084;5.090;2022-10-14T17:06:49;14.80;99.90
13606;DHT22;6874;52.084;5.090;2022-10-14T17:09:16;14.80;99.90
13606;DHT22;6874;52.084;5.090;2022-10-14T17:11:42;14.70;99.90
13606;DHT22;6874;52.084;5.090;2022-10-14T17:14:11;14.70;99.90
13606;DHT22;6874;52.084;5.090;2022-10-14T17:16:37;14.70;99.90
13606;DHT22;6874;52.084;5.090;2022-10-14T17:19:03;14.70;99.90
13606;DHT22;6874;52.084;5.090;2022-10-14T17:21:29;14.70;99.90
13606;DHT22;6874;52.084;5.090;2022-10-14T17:23:58;14.60;99.90
13606;DHT22;6874;52.084;5.090;2022-10-14T17:26:29;14.60;99.90
13606;DHT22;6874;52.084;5.090;2022-10-14T17:28:55;14.60;99.90
13606;DHT22;6874;52.084;5.090;2022-10-14T17:31:21;14.60;99.90
13606;DHT22;6874;52.084;5.090;2022-10-14T17:33:47;14.50;99.90
13606;DHT22;6874;52.084;5.090;2022-10-14T17:36:22;14.50;99.90
13606;DHT22;6874;52.084;5.090;2022-10-14T17:38:49;14.50;99.90
13606;DHT22;6874;52.084;5.090;2022-10-14T17:41:17;14.50;99.90
13606;DHT22;6874;52.084;5.090;2022-10-14T17:43:44;14.50;99.90
13606;DHT22;6874;52.084;5.090;2022-10-14T17:46:14;14.50;99.90
13606;DHT22;6874;52.084;5.090;2022-10-14T17:48:41;14.40;99.90
13606;DHT22;6874;52.084;5.090;2022-10-14T17:51:11;14.40;99.90
13606;DHT22;6874;52.084;5.090;2022-10-14T17:53:37;14.40;99.90
13606;DHT22;6874;52.084;5.090;2022-10-14T17:56:04;14.30;99.90
13606;DHT22;6874;52.084;5.090;2022-10-14T17:58:30;14.40;99.90
13606;DHT22;6874;52.084;5.090;2022-10-14T18:01:07;14.40;99.90
13606;DHT22;6874;52.084;5.090;2022-10-14T18:03:34;14.30;99.90
13606;DHT22;6874;52.084;5.090;2022-10-14T18:06:16;14.30;99.90
13606;DHT22;6874;52.084;5.090;2022-10-14T18:08:48;14.30;99.90
13606;DHT22;6874;52.084;5.090;2022-10-14T18:11:13;14.30;99.90
13606;DHT22;6874;52.084;5.090;2022-10-14T18:13:39;14.20;99.90
13606;DHT22;6874;52.084;5.090;2022-10-14T18:16:10;14.20;99.90